Time;durP1;ratioP1;P1;durP2;ratioP2;P2;SDS_P1;SDS_P2;PMS_P1;PMS_P2;Temp;Humidity;BMP_temperature;BMP_pressure;BME280_temperature;BME280_humidity;BME280_pressure;Samples;Min_cycle;Max_cycle;Signal;HPM_P1;HPM_P2
2022/06/28 00:00:14;;;;;;;2.45;1.77;;;15.50;99.90;;;15.69;95.21;101534.28;5205379;28;20048;-70
2022/06/28 00:02:46;;;;;;;2.65;1.80;;;15.50;99.90;;;15.66;95.23;101535.97;5205386;28;20045;-70
2022/06/28 00:05:20;;;;;;;3.15;1.88;;;15.40;99.90;;;15.61;95.33;101534.91;5205379;28;20115;-70
2022/06/28 00:07:52;;;;;;;3.72;1.92;;;15.40;99.90;;;15.59;95.60;101531.38;5205357;28;20494;-70
2022/06/28 00:10:24;;;;;;;2.80;1.67;;;15.40;99.90;;;15.58;96.20;101524.31;5205189;28;20116;-71
2022/06/28 00:12:59;;;;;;;2.38;1.90;;;15.40;99.90;;;15.59;96.50;101531.38;5205330;28;20045;-69
2022/06/28 00:18:21;;;;;;;3.95;1.92;;;15.40;99.90;;;15.55;95.99;101518.97;5205205;28;20122;-70
2022/06/28 00:20:54;;;;;;;2.83;1.98;;;15.40;99.90;;;15.51;95.86;101531.13;5205196;28;20088;-70
2022/06/28 00:23:27;;;;;;;2.22;1.77;;;15.30;99.90;;;15.47;95.93;101526.66;5206550;28;20041;-70
2022/06/28 00:25:59;;;;;;;3.78;2.20;;;15.30;99.90;;;15.44;96.04;101516.94;5208914;28;20046;-71
2022/06/28 00:28:31;;;;;;;2.38;1.77;;;15.20;99.90;;;15.40;96.02;101520.38;5208978;28;20055;-71
2022/06/28 00:31:04;;;;;;;3.63;1.92;;;15.20;99.90;;;15.36;95.90;101518.50;5190927;28;20045;-71
2022/06/28 00:33:36;;;;;;;3.05;1.77;;;15.20;99.90;;;15.33;95.96;101521.06;5191021;28;20077;-70
2022/06/28 00:36:10;;;;;;;2.58;1.70;;;15.10;99.90;;;15.30;95.96;101518.31;5208671;28;20051;-70
2022/06/28 00:38:42;;;;;;;3.80;1.73;;;15.10;99.90;;;15.27;95.82;101518.25;5208649;28;20053;-71
2022/06/28 00:41:14;;;;;;;3.03;1.60;;;15.10;99.90;;;15.24;95.89;101518.16;5208490;28;20047;-71
2022/06/28 00:43:46;;;;;;;3.17;2.03;;;15.10;99.90;;;15.22;96.39;101512.00;5208503;28;20037;-71
2022/06/28 00:46:19;;;;;;;3.65;2.30;;;15.00;99.90;;;15.24;96.80;101514.66;5190716;28;20056;-70
2022/06/28 00:48:51;;;;;;;4.03;2.63;;;15.00;99.90;;;15.27;97.25;101522.63;5190837;28;20057;-71
2022/06/28 00:51:26;;;;;;;4.60;2.30;;;15.10;99.90;;;15.28;97.63;101520.03;5208189;28;20125;-70
2022/06/28 00:53:58;;;;;;;4.18;2.45;;;15.10;99.90;;;15.28;97.32;101520.03;5190655;28;20041;-70
2022/06/28 00:56:30;;;;;;;3.97;2.53;;;15.10;99.90;;;15.26;97.38;101521.75;5208375;28;20045;-70
2022/06/28 00:59:03;;;;;;;3.58;2.15;;;15.10;99.90;;;15.24;97.51;101515.53;5190594;28;20441;-69
2022/06/28 01:01:35;;;;;;;3.72;2.20;;;15.10;99.90;;;15.22;97.10;101519.88;5190041;28;20541;-70
2022/06/28 01:04:08;;;;;;;4.97;2.90;;;15.00;99.90;;;15.18;97.00;101523.25;5190353;28;20426;-71
2022/06/28 01:06:42;;;;;;;4.78;2.40;;;15.00;99.90;;;15.14;96.95;101524.03;5190344;28;20053;-70
2022/06/28 01:09:15;;;;;;;4.50;2.17;;;15.00;99.90;;;15.13;97.10;101530.13;5190160;28;20045;-71
2022/06/28 01:11:48;;;;;;;3.95;2.17;;;14.90;99.90;;;15.11;97.21;101529.19;5190190;28;20053;-70
2022/06/28 01:14:20;;;;;;;4.97;2.75;;;15.00;99.90;;;15.11;97.36;101530.06;5190049;28;20081;-70
2022/06/28 01:17:11;;;;;;;4.28;2.45;;;14.90;99.90;;;15.11;97.43;101527.44;5190136;28;20049;-71
2022/06/28 01:19:49;;;;;;;5.15;3.08;;;14.90;99.90;;;15.11;97.63;101531.81;5189986;28;20053;-70
2022/06/28 01:22:40;;;;;;;3.92;2.60;;;14.90;99.90;;;15.10;97.62;101532.66;5207799;28;20043;-70
2022/06/28 01:25:14;;;;;;;4.90;2.67;;;14.90;99.90;;;15.08;97.29;101542.22;5189734;28;20423;-70
2022/06/28 01:27:51;;;;;;;4.47;2.00;;;14.90;99.90;;;15.07;97.49;101541.34;5189861;28;20055;-70
2022/06/28 01:30:24;;;;;;;3.47;2.10;;;14.90;99.90;;;15.07;97.32;101543.09;5189634;28;20132;-70
2022/06/28 01:33:04;;;;;;;4.57;2.22;;;14.90;99.90;;;15.06;97.39;101549.16;5190015;28;20049;-70
2022/06/28 01:35:37;;;;;;;3.13;2.10;;;14.90;99.90;;;15.06;97.75;101549.16;5188638;28;20418;-70
2022/06/28 01:38:12;;;;;;;4.13;2.67;;;14.90;99.90;;;15.04;97.92;101548.22;5189754;28;20152;-70
2022/06/28 01:40:46;;;;;;;;;;;14.90;99.90;;;15.03;98.14;101555.22;5189928;28;20069;-70
2022/06/28 01:43:21;;;;;;;3.95;2.60;;;14.90;99.90;;;15.02;98.27;101563.06;5206065;28;19951;-70
2022/06/28 01:45:56;;;;;;;4.43;2.40;;;14.90;99.90;;;15.03;98.40;101570.97;5189503;28;20050;-70
2022/06/28 01:48:29;;;;;;;3.72;2.40;;;14.90;99.90;;;15.02;98.29;101560.44;5189522;28;20537;-70
2022/06/28 01:51:06;;;;;;;3.55;2.35;;;14.90;99.90;;;15.01;98.06;101571.78;5189243;28;20046;-71
2022/06/28 01:53:40;;;;;;;3.50;2.03;;;14.80;99.90;;;14.98;97.85;101576.94;5189391;28;20072;-71
2022/06/28 01:56:26;;;;;;;3.08;1.80;;;14.80;99.90;;;14.95;97.69;101567.25;5207169;28;20374;-71
2022/06/28 01:59:11;;;;;;;4.30;2.30;;;14.80;99.90;;;14.91;97.75;101566.25;5189359;28;20056;-70
2022/06/28 02:02:02;;;;;;;2.90;2.05;;;14.70;99.90;;;14.89;97.57;101567.94;5189126;28;20050;-70
2022/06/28 02:04:46;;;;;;;3.35;2.00;;;14.80;99.90;;;14.87;97.75;101568.75;5189178;28;20049;-70
2022/06/28 02:07:22;;;;;;;4.40;2.30;;;14.70;99.90;;;14.85;97.22;101573.94;5188997;28;20051;-70
2022/06/28 02:09:55;;;;;;;3.42;2.35;;;14.70;99.90;;;14.83;96.90;101573.03;5189328;28;20077;-70
2022/06/28 02:12:28;;;;;;;3.78;2.00;;;14.70;99.90;;;14.81;96.93;101568.59;5189341;28;20557;-70
2022/06/28 02:15:01;;;;;;;3.08;1.98;;;14.60;99.90;;;14.78;96.76;101577.22;5189090;28;20139;-71
2022/06/28 02:17:33;;;;;;;4.95;2.55;;;14.60;99.90;;;14.74;97.03;101571.88;5188847;28;20422;-70
2022/06/28 02:20:07;;;;;;;4.30;2.83;;;14.60;99.90;;;14.62;96.36;101580.25;5188983;28;20049;-70
2022/06/28 02:22:40;;;;;;;3.90;2.42;;;14.50;99.90;;;14.59;96.54;101582.75;5188993;28;20049;-70
2022/06/28 02:25:14;;;;;;;3.22;2.13;;;14.40;99.90;;;14.57;96.63;101584.47;5188690;28;20099;-69
2022/06/28 02:27:47;;;;;;;2.90;1.90;;;14.40;99.90;;;14.52;96.32;101588.66;5188731;28;20148;-70
2022/06/28 02:30:21;;;;;;;2.78;2.00;;;14.40;99.90;;;14.48;96.53;101578.94;5188639;28;20555;-70
2022/06/28 02:32:53;;;;;;;2.88;2.05;;;14.30;99.90;;;14.47;96.60;101585.00;5188609;28;20456;-70
2022/06/28 02:41:06;;;;;;;3.83;1.70;;;14.30;99.90;;;14.38;96.34;101578.59;5188361;28;20041;-69
2022/06/28 02:43:39;;;;;;;2.92;1.98;;;14.20;99.90;;;14.36;96.52;101588.16;5206087;28;20128;-70
2022/06/28 02:46:12;;;;;;;2.72;1.85;;;14.20;99.90;;;14.36;96.99;101593.41;5188155;28;20064;-70
2022/06/28 02:48:46;;;;;;;4.13;2.00;;;14.20;99.90;;;14.36;96.91;101589.91;5206187;28;20041;-70
2022/06/28 02:51:18;;;;;;;3.47;2.00;;;14.20;99.90;;;14.37;97.33;101595.19;5206084;28;20520;-70
2022/06/28 02:53:51;;;;;;;2.88;2.00;;;14.20;99.90;;;14.39;97.60;101598.72;5188405;28;20137;-71
2022/06/28 02:56:25;;;;;;;2.13;1.73;;;14.20;99.90;;;14.41;97.76;101596.19;5188295;28;20048;-70
2022/06/28 02:58:57;;;;;;;2.72;2.00;;;14.20;99.90;;;14.43;97.70;101601.47;5188195;28;20045;-69
2022/06/28 03:01:29;;;;;;;3.60;1.90;;;14.30;99.90;;;14.44;97.83;101605.88;5188129;28;20124;-70
2022/06/28 03:04:01;;;;;;;3.25;1.92;;;14.30;99.90;;;14.45;97.82;101607.66;5188238;28;20042;-69
2022/06/28 03:06:34;;;;;;;4.15;2.20;;;14.30;99.90;;;14.46;98.11;101609.44;5188294;28;20080;-70
2022/06/28 03:09:07;;;;;;;4.63;2.72;;;14.30;99.90;;;14.48;98.17;101626.16;5188202;28;20053;-70
2022/06/28 03:11:42;;;;;;;2.85;1.85;;;14.30;99.90;;;14.52;98.40;101625.41;5205649;28;20490;-70
2022/06/28 03:14:14;;;;;;;4.03;2.33;;;14.30;99.90;;;14.53;98.51;101619.31;5188003;28;20041;-70
2022/06/28 03:16:46;;;;;;;6.65;2.90;;;14.40;99.90;;;14.52;97.83;101625.41;5187989;28;20067;-69
2022/06/28 03:19:18;;;;;;;4.80;2.47;;;14.40;99.90;;;14.52;97.76;101630.66;5187933;28;20055;-71
2022/06/28 03:21:51;;;;;;;5.88;3.30;;;14.40;99.90;;;14.52;98.17;101622.78;5187919;28;20127;-70
2022/06/28 03:24:23;;;;;;;5.53;3.05;;;14.40;99.90;;;14.50;98.50;101625.34;5187999;28;20046;-70
2022/06/28 03:26:57;;;;;;;8.50;4.10;;;14.40;99.90;;;14.48;99.27;101631.41;5187802;28;20107;-71
2022/06/28 03:29:29;;;;;;;7.93;4.10;;;14.40;99.90;;;14.46;99.74;101627.78;5188047;28;20461;-71
2022/06/28 03:32:02;;;;;;;6.47;3.83;;;14.30;99.90;;;14.43;100.00;101632.94;5205436;28;20087;-70
2022/06/28 03:34:36;;;;;;;6.55;3.35;;;14.30;99.90;;;14.41;100.00;101643.41;5187988;28;20076;-70
2022/06/28 03:37:08;;;;;;;5.82;3.40;;;14.30;99.90;;;14.46;100.00;101643.53;5205694;28;20129;-70
2022/06/28 03:39:45;;;;;;;8.45;4.30;;;14.30;99.90;;;14.48;100.00;101636.66;5187879;28;20069;-70
2022/06/28 03:42:19;;;;;;;8.73;4.55;;;14.40;99.90;;;14.47;100.00;101640.09;5187735;28;20111;-70
2022/06/28 03:44:54;;;;;;;7.40;3.90;;;14.30;99.90;;;14.48;100.00;101639.28;5187780;28;20453;-72
2022/06/28 03:47:26;;;;;;;5.18;2.95;;;14.40;99.90;;;14.50;100.00;101643.72;5205435;28;20077;-70
2022/06/28 03:50:01;;;;;;;6.72;3.53;;;14.40;99.90;;;14.52;100.00;101646.38;5205746;28;20053;-70
2022/06/28 03:52:52;;;;;;;4.07;2.67;;;14.40;99.90;;;14.55;100.00;101638.63;5205422;28;20044;-70
2022/06/28 03:55:39;;;;;;;7.63;3.83;;;14.40;99.90;;;14.59;100.00;101643.13;5205561;28;20196;-70
2022/06/28 03:58:13;;;;;;;7.53;4.07;;;14.40;99.90;;;14.61;100.00;101646.69;5188686;28;20051;-70
2022/06/28 04:00:45;;;;;;;5.30;2.92;;;14.40;99.90;;;14.64;100.00;101652.91;5191499;28;20489;-70
2022/06/28 04:03:17;;;;;;;8.13;3.63;;;14.50;99.90;;;14.60;100.00;101648.41;5191531;28;20588;-70
2022/06/28 04:05:50;;;;;;;8.32;4.07;;;14.50;99.90;;;14.60;100.00;101652.75;5191279;28;20045;-70
2022/06/28 04:08:22;;;;;;;7.50;4.00;;;14.50;99.90;;;14.59;100.00;101653.59;5191420;28;20418;-71
2022/06/28 04:11:14;;;;;;;7.07;3.42;;;14.50;99.90;;;14.54;100.00;101657.81;5191195;28;20041;-70
2022/06/28 04:13:51;;;;;;;7.68;3.97;;;14.40;99.90;;;14.52;100.00;101649.00;5191400;28;20052;-70
2022/06/28 04:16:25;;;;;;;12.13;5.97;;;14.40;99.90;;;14.40;100.00;101652.97;5191250;28;20112;-70
2022/06/28 04:19:01;;;;;;;6.45;3.67;;;14.30;99.90;;;14.39;100.00;101653.81;5191271;28;20053;-71
2022/06/28 04:21:37;;;;;;;7.97;4.00;;;14.30;99.90;;;14.38;100.00;101657.28;5191092;28;20046;-71
2022/06/28 04:24:19;;;;;;;6.22;2.97;;;14.30;99.90;;;14.44;100.00;101655.72;5191097;28;20123;-71
2022/06/28 04:27:04;;;;;;;4.88;2.80;;;14.30;99.90;;;14.49;100.00;101656.81;5190951;28;20045;-70
2022/06/28 04:29:38;;;;;;;6.68;3.45;;;14.40;99.90;;;14.52;100.00;101651.63;5190953;28;20041;-71
2022/06/28 04:32:14;;;;;;;5.60;3.08;;;14.40;99.90;;;14.57;100.00;101669.31;5190771;28;20505;-70
2022/06/28 04:34:46;;;;;;;5.07;2.72;;;14.50;99.90;;;14.63;100.00;101663.38;5190869;28;20521;-70
2022/06/28 04:37:18;;;;;;;6.45;3.35;;;14.50;99.90;;;14.67;100.00;101660.03;5190930;28;20073;-70
2022/06/28 04:39:52;;;;;;;7.22;3.65;;;14.50;99.90;;;14.71;100.00;101667.13;5190925;28;20052;-71
2022/06/28 04:42:30;;;;;;;5.60;3.20;;;14.60;99.90;;;14.79;100.00;101672.59;5231089;22;20131;-83
2022/06/28 04:45:06;;;;;;;5.18;3.38;;;14.60;99.90;;;14.88;100.00;101659.78;5227722;28;20045;-82
2022/06/28 04:47:53;;;;;;;5.65;2.92;;;14.70;99.90;;;14.96;100.00;101663.53;5235520;28;20044;-82
2022/06/28 04:50:26;;;;;;;5.97;3.10;;;14.80;99.90;;;15.04;100.00;101663.75;5227000;28;20052;-82
2022/06/28 04:52:58;;;;;;;5.85;3.33;;;14.90;99.90;;;15.12;100.00;101664.88;5235827;28;20071;-82
2022/06/28 04:55:31;;;;;;;5.35;2.67;;;14.90;99.90;;;15.20;100.00;101655.50;5235537;28;20527;-82
2022/06/28 04:58:11;;;;;;;4.65;2.72;;;15.00;99.90;;;15.33;100.00;101662.91;5251913;28;20058;-81
2022/06/28 05:00:45;;;;;;;7.82;3.92;;;15.10;99.90;;;15.50;100.00;101651.97;5235387;28;20044;-82
2022/06/28 05:03:22;;;;;;;7.35;3.83;;;15.30;99.90;;;15.70;100.00;101658.72;5224662;28;20053;-82
2022/06/28 05:06:14;;;;;;;6.57;3.67;;;15.50;99.90;;;16.08;100.00;101664.13;5233020;28;20132;-83
2022/06/28 05:08:51;;;;;;;7.07;3.70;;;15.80;99.90;;;16.19;96.96;101665.28;5216847;28;20053;-83
2022/06/28 05:11:23;;;;;;;6.65;3.58;;;15.90;99.90;;;16.25;95.65;101663.69;5217661;28;20185;-83
2022/06/28 05:14:18;;;;;;;7.53;3.80;;;16.00;99.90;;;16.50;95.27;101659.94;5246051;28;20120;-81
2022/06/28 05:16:51;;;;;;;6.72;3.55;;;16.20;99.90;;;16.76;93.66;101662.34;5229618;28;20045;-83
2022/06/28 05:19:26;;;;;;;6.22;3.40;;;16.40;99.90;;;16.95;91.84;101659.28;5229997;28;20515;-81
2022/06/28 05:21:58;;;;;;;7.20;3.65;;;16.60;99.90;;;17.06;90.31;101663.00;5226459;28;20041;-82
2022/06/28 05:24:31;;;;;;;4.78;2.83;;;16.70;99.90;;;17.17;89.56;101673.78;5215302;28;20047;-82
2022/06/28 05:27:07;;;;;;;6.55;3.60;;;16.80;99.90;;;17.24;88.44;101669.53;5215429;28;20143;-82
2022/06/28 05:29:43;;;;;;;6.45;3.45;;;16.90;99.90;;;17.34;88.71;101671.50;5215136;28;20069;-83
2022/06/28 05:32:17;;;;;;;6.50;3.58;;;17.00;99.90;;;17.90;87.72;101670.03;5215387;28;20044;-82
2022/06/28 05:34:49;;;;;;;6.22;3.63;;;17.40;99.90;;;18.61;83.79;101669.50;5231208;28;20441;-81
2022/06/28 05:37:21;;;;;;;6.03;3.80;;;18.00;99.90;;;19.19;78.88;101667.72;5213851;28;20458;-82
2022/06/28 05:39:53;;;;;;;4.40;3.28;;;18.50;99.90;;;19.70;76.25;101663.09;5213550;28;20075;-81
2022/06/28 05:42:25;;;;;;;4.65;3.10;;;19.00;99.90;;;20.18;73.16;101662.69;5208827;28;20045;-83
2022/06/28 05:44:58;;;;;;;4.70;3.08;;;19.50;99.90;;;20.68;70.83;101664.03;5236695;28;20103;-83
2022/06/28 05:47:32;;;;;;;5.13;3.00;;;19.90;99.90;;;21.06;69.15;101662.50;5213195;28;20099;-82
2022/06/28 05:50:06;;;;;;;4.43;2.58;;;20.30;99.90;;;21.39;67.78;101674.19;5213899;28;20084;-83
2022/06/28 05:52:38;;;;;;;3.65;2.75;;;20.60;99.90;;;21.51;66.54;101670.66;5213431;28;20055;-82
2022/06/28 05:55:11;;;;;;;5.63;3.20;;;20.80;99.90;;;21.26;64.80;101667.03;5213024;28;20041;-81
2022/06/28 05:57:43;;;;;;;3.38;2.13;;;20.80;99.90;;;21.09;67.32;101657.19;5212320;28;20059;-81
2022/06/28 06:00:16;;;;;;;4.13;2.67;;;20.70;99.90;;;21.19;67.17;101658.16;5231374;28;20128;-83
2022/06/28 06:02:50;;;;;;;2.83;2.10;;;20.70;99.90;;;21.14;66.64;101665.19;5213599;28;20514;-83
2022/06/28 06:05:22;;;;;;;3.38;2.22;;;20.70;99.90;;;21.34;66.93;101666.19;5213380;28;20143;-83
2022/06/28 06:07:54;;;;;;;3.08;2.35;;;20.80;99.90;;;21.61;66.27;101661.88;5213223;28;20099;-83
2022/06/28 06:10:30;;;;;;;4.25;2.90;;;21.00;99.90;;;21.78;65.63;101668.13;5212140;28;20048;-81
2022/06/28 06:13:05;;;;;;;5.43;2.80;;;21.10;99.90;;;21.80;64.60;101668.13;5212268;28;20067;-82
2022/06/28 06:15:37;;;;;;;;;;;21.30;99.40;;;21.99;64.55;101674.34;5211901;28;20052;-81
2022/06/28 06:18:11;;;;;;;4.38;2.60;;;21.40;99.50;;;22.31;63.46;101672.66;5212017;28;19958;-80
2022/06/28 06:20:43;;;;;;;3.33;2.22;;;21.60;99.00;;;22.46;63.04;101682.38;5231176;28;20135;-82
2022/06/28 06:23:15;;;;;;;3.92;2.53;;;21.80;98.80;;;22.79;62.38;101680.59;5232364;28;20478;-82
2022/06/28 06:26:05;;;;;;;4.32;2.50;;;22.10;98.70;;;23.21;60.97;101674.28;5250405;28;20120;-81
2022/06/28 06:28:39;;;;;;;4.72;2.30;;;22.40;97.90;;;23.37;59.93;101675.13;5250674;28;20044;-82
2022/06/28 06:31:12;;;;;;;4.82;2.97;;;22.70;97.10;;;23.39;58.47;101671.56;5232161;28;20044;-82
2022/06/28 06:34:04;;;;;;;4.70;3.03;;;22.80;96.10;;;23.62;56.53;101675.97;5225853;28;20052;-82
2022/06/28 06:37:03;;;;;;;4.78;2.80;;;22.90;94.80;;;23.79;56.49;101674.06;5206430;28;20427;-80
2022/06/28 06:39:36;;;;;;;4.07;3.05;;;23.10;94.40;;;23.98;55.89;101673.06;5209565;28;20044;-81
2022/06/28 06:42:09;;;;;;;4.75;2.92;;;23.30;93.80;;;24.23;55.72;101675.56;5197812;28;20042;-82
2022/06/28 06:44:41;;;;;;;5.13;2.90;;;23.40;93.70;;;24.48;54.61;101676.28;5225035;28;20044;-81
2022/06/28 06:47:15;;;;;;;4.15;2.83;;;23.70;92.90;;;24.84;53.25;101677.69;5200179;28;20057;-83
2022/06/28 06:49:48;;;;;;;5.28;2.78;;;24.00;91.90;;;25.15;51.71;101681.81;5220698;28;20041;-82
2022/06/28 06:52:20;;;;;;;4.78;2.85;;;24.30;90.60;;;25.38;50.87;101683.34;5203230;28;20041;-82
2022/06/28 06:54:54;;;;;;;3.13;2.17;;;24.50;89.50;;;25.46;51.49;101684.13;5196126;28;20099;-82
2022/06/28 06:57:26;;;;;;;3.72;2.00;;;24.60;90.00;;;25.67;50.12;101691.84;5194373;28;20045;-80
2022/06/28 06:59:58;;;;;;;4.25;2.60;;;24.80;87.70;;;25.91;49.65;101688.00;5196712;28;20049;-81
2022/06/28 07:02:30;;;;;;;3.10;2.10;;;25.00;87.00;;;25.88;48.87;101687.16;5208418;28;20188;-81
2022/06/28 07:05:05;;;;;;;4.15;2.00;;;25.10;84.60;;;25.83;49.15;101691.69;5205113;28;20124;-82
2022/06/28 07:07:39;;;;;;;3.90;2.45;;;25.00;84.40;;;26.04;49.45;101688.69;5202034;28;20522;-82
2022/06/28 07:10:11;;;;;;;3.97;2.50;;;25.20;84.70;;;26.21;49.31;101686.66;5195428;28;20072;-82
2022/06/28 07:12:44;;;;;;;3.03;1.98;;;25.30;84.20;;;26.19;49.18;101696.47;5196721;28;20038;-82
2022/06/28 07:15:19;;;;;;;3.45;1.80;;;25.40;83.80;;;25.90;49.12;101688.91;5215336;28;20045;-82
2022/06/28 07:17:52;;;;;;;3.97;2.22;;;25.30;82.70;;;25.39;50.04;101687.78;5209788;28;20041;-81
2022/06/28 07:20:25;;;;;;;3.05;2.13;;;24.90;82.50;;;25.21;51.27;101685.34;5207502;28;20037;-81
2022/06/28 07:22:57;;;;;;;3.60;2.13;;;24.60;84.10;;;25.05;51.59;101674.84;5235108;28;20122;-80
2022/06/28 07:25:29;;;;;;;3.75;2.00;;;24.40;85.10;;;24.98;51.30;101683.78;5227180;28;20057;-79
2022/06/28 07:28:02;;;;;;;4.03;2.08;;;24.30;84.60;;;25.04;51.08;101678.41;5210605;28;20526;-81
2022/06/28 07:30:34;;;;;;;2.80;1.60;;;24.30;84.80;;;25.28;52.10;101676.34;5238521;28;20048;-79
2022/06/28 07:33:07;;;;;;;3.08;1.60;;;24.40;86.30;;;25.69;51.10;101678.47;5232907;28;20045;-80
2022/06/28 07:35:40;;;;;;;4.07;2.42;;;24.70;85.90;;;25.81;49.25;101677.47;5241229;28;20151;-80
2022/06/28 07:38:14;;;;;;;3.35;1.83;;;24.90;83.00;;;25.92;49.04;101691.56;5219872;28;20049;-80
2022/06/28 07:41:05;;;;;;;4.40;1.50;;;25.10;82.10;;;25.83;48.75;101675.69;5230939;28;20075;-79
2022/06/28 07:43:58;;;;;;;3.25;2.10;;;25.10;80.90;;;25.95;49.15;101683.47;5193566;28;20048;-82
2022/06/28 07:46:35;;;;;;;2.80;1.40;;;25.10;81.50;;;26.14;48.65;101678.75;5220770;28;20098;-80
2022/06/28 07:49:07;;;;;;;2.80;1.63;;;25.30;81.00;;;26.02;47.91;101676.25;5236176;28;20044;-86
2022/06/28 07:54:31;;;;;;;1.42;1.13;;;25.10;79.90;;;25.68;48.92;101669.59;5218311;28;20044;-84
2022/06/28 07:57:15;;;;;;;2.60;1.10;;;24.90;79.80;;;25.55;48.46;101665.31;5221224;28;20543;-84
2022/06/28 07:59:49;;;;;;;2.88;1.05;;;24.80;79.50;;;25.48;48.53;101658.28;5200502;28;20065;-80
2022/06/28 08:02:24;;;;;;;3.70;1.33;;;24.70;79.70;;;25.47;48.26;101666.34;5224909;28;20490;-81
2022/06/28 08:04:59;;;;;;;2.38;1.08;;;24.60;79.30;;;25.56;47.43;101656.44;5226127;28;20198;-79
2022/06/28 08:07:33;;;;;;;1.10;1.00;;;24.50;78.40;;;25.77;47.15;101659.75;5247467;28;20051;-81
2022/06/28 08:10:07;;;;;;;0.93;0.82;;;24.60;78.20;;;26.10;46.10;101656.56;5242397;28;20070;-80
2022/06/28 08:12:40;;;;;;;1.90;0.80;;;24.80;77.80;;;26.46;45.67;101656.88;5225715;28;20040;-80
2022/06/28 08:15:13;;;;;;;1.42;0.60;;;24.90;77.40;;;26.76;44.84;101656.31;5232907;28;20049;-80
2022/06/28 08:17:45;;;;;;;1.85;0.73;;;25.00;77.10;;;27.20;44.67;101659.97;5241820;28;20049;-82
2022/06/28 08:20:19;;;;;;;1.77;0.65;;;25.20;77.20;;;27.74;42.86;101659.69;5227704;28;20052;-80
2022/06/28 08:22:53;;;;;;;1.88;0.65;;;25.50;75.90;;;28.31;40.92;101661.06;5231981;28;20047;-80
2022/06/28 08:25:25;;;;;;;3.08;0.60;;;25.80;73.60;;;28.88;39.81;101647.88;5235644;28;20048;-80
2022/06/28 08:27:57;;;;;;;2.70;0.65;;;26.10;72.40;;;29.23;38.46;101654.09;5232987;28;20053;-81
2022/06/28 08:30:30;;;;;;;2.22;0.75;;;26.20;70.20;;;30.02;37.76;101655.28;5236161;28;20487;-81
2022/06/28 08:33:02;;;;;;;2.08;0.77;;;26.60;70.60;;;30.78;36.21;101653.59;5229844;28;20102;-80
2022/06/28 08:35:35;;;;;;;3.20;0.90;;;27.00;68.80;;;31.42;34.40;101655.72;5218855;28;20067;-80
2022/06/28 08:38:09;;;;;;;2.15;0.80;;;27.40;66.30;;;32.39;32.65;101650.03;5238540;28;20063;-81
2022/06/28 08:40:41;;;;;;;2.30;0.77;;;27.90;64.90;;;33.24;31.94;101648.06;5238206;28;20049;-80
2022/06/28 08:43:13;;;;;;;2.03;0.80;;;28.40;64.00;;;34.26;31.36;101645.81;5219794;28;20049;-81
2022/06/28 08:45:46;;;;;;;1.50;0.70;;;29.20;64.30;;;35.26;30.00;101646.84;5220190;28;20056;-80
2022/06/28 08:48:22;;;;;;;2.38;0.68;;;30.00;62.00;;;36.23;28.60;101639.53;5238068;28;20056;-80
2022/06/28 08:50:55;;;;;;;2.53;0.65;;;31.00;60.20;;;36.95;27.26;101638.75;5238139;28;20045;-79
2022/06/28 08:53:30;;;;;;;2.15;0.60;;;31.80;58.20;;;37.35;26.38;101638.97;5222088;28;20041;-79
2022/06/28 08:56:02;;;;;;;1.63;0.63;;;32.40;55.70;;;37.50;25.55;101638.97;5220616;28;20049;-78
2022/06/28 08:58:35;;;;;;;2.13;0.60;;;32.70;54.00;;;37.46;25.06;101633.72;5238667;28;20124;-80
2022/06/28 09:01:07;;;;;;;1.88;0.65;;;32.90;52.60;;;37.79;25.36;101618.84;5223216;28;20091;-80
2022/06/28 09:03:39;;;;;;;2.10;0.70;;;33.20;53.10;;;38.17;24.84;101624.47;5238367;28;20044;-80
2022/06/28 09:06:12;;;;;;;1.52;0.70;;;33.50;52.70;;;38.38;24.38;101633.03;5237338;28;20041;-79
2022/06/28 09:08:45;;;;;;;4.50;1.10;;;33.60;51.60;;;38.39;23.39;101623.00;5217955;28;20071;-81
2022/06/28 09:11:17;;;;;;;3.53;0.50;;;33.70;50.10;;;38.42;23.92;101617.34;5234047;28;20041;-81
2022/06/28 09:13:50;;;;;;;5.65;0.90;;;33.80;50.50;;;38.66;23.59;101603.84;5215264;28;20080;-81
2022/06/28 09:16:22;;;;;;;1.55;0.70;;;33.90;50.30;;;38.89;22.75;101604.97;5235045;28;20055;-81
2022/06/28 09:18:54;;;;;;;1.15;0.50;;;34.00;49.10;;;38.83;22.93;101610.88;5235013;28;20051;-81
2022/06/28 09:21:26;;;;;;;1.75;0.63;;;34.00;49.40;;;38.85;22.89;101598.84;5234034;28;20051;-81
2022/06/28 09:24:03;;;;;;;1.33;0.68;;;34.10;49.10;;;38.53;22.73;101607.44;5234027;28;20045;-82
2022/06/28 09:26:35;;;;;;;1.73;0.60;;;34.00;48.50;;;37.96;22.44;101596.88;5234432;28;20040;-82
2022/06/28 09:29:13;;;;;;;1.50;0.40;;;33.70;47.60;;;37.29;22.91;101594.94;5234406;28;20140;-84
2022/06/28 09:31:45;;;;;;;1.40;0.63;;;33.40;47.40;;;36.62;24.44;101597.38;5235013;28;20045;-80
2022/06/28 09:34:18;;;;;;;2.22;0.70;;;33.20;48.50;;;35.94;25.54;101595.16;5235082;28;20041;-80
2022/06/28 09:36:55;;;;;;;2.38;0.50;;;32.90;49.30;;;34.83;25.37;101593.28;5218010;28;20044;-81
2022/06/28 09:39:30;;;;;;;1.92;0.60;;;32.30;48.50;;;33.18;26.46;101584.38;5244909;28;20438;-82
2022/06/28 09:42:07;;;;;;;0.90;0.50;;;31.50;48.40;;;32.07;28.41;101578.56;5224985;28;20044;-81
2022/06/28 09:44:40;;;;;;;1.95;0.57;;;30.70;49.70;;;31.14;29.15;101583.16;5230214;28;20119;-83
2022/06/28 09:47:14;;;;;;;0.52;0.50;;;30.10;50.20;;;30.37;30.44;101568.06;5216815;28;20063;-83
2022/06/28 09:49:48;;;;;;;1.05;0.45;;;29.40;51.10;;;29.88;32.19;101570.59;5241173;28;20036;-86
2022/06/28 09:52:28;;;;;;;1.17;0.60;;;29.00;52.80;;;29.61;32.44;101566.16;5222480;28;20057;-82
2022/06/28 09:55:02;;;;;;;1.85;0.50;;;28.60;53.20;;;29.39;32.57;101563.22;5221756;28;20061;-77
2022/06/28 09:57:35;;;;;;;0.75;0.40;;;28.30;53.60;;;29.21;32.44;101553.91;5243843;28;20048;-78
2022/06/28 10:00:09;;;;;;;1.80;0.68;;;28.10;54.20;;;29.00;32.81;101558.13;5234155;28;20041;-77
2022/06/28 10:02:45;;;;;;;0.95;0.43;;;27.90;53.50;;;28.84;32.78;101554.13;5228415;28;20052;-77
2022/06/28 10:05:18;;;;;;;0.70;0.40;;;27.80;53.60;;;28.69;33.40;101542.03;5210794;28;20041;-77
2022/06/28 10:07:50;;;;;;;1.60;0.60;;;27.70;54.30;;;28.42;33.79;101542.78;5210316;28;20057;-79
2022/06/28 10:10:24;;;;;;;1.75;0.50;;;27.50;54.30;;;28.26;34.31;101532.47;5228020;28;20045;-79
2022/06/28 10:15:54;;;;;;;0.77;0.60;;;27.30;55.90;;;28.22;35.77;101528.09;5228280;28;20499;-78
2022/06/28 10:18:28;;;;;;;2.53;0.45;;;27.30;56.60;;;28.01;34.59;101518.81;5228584;28;20127;-77
2022/06/28 10:21:01;;;;;;;1.05;0.52;;;27.20;55.00;;;27.82;34.70;101518.41;5221618;28;20458;-78
2022/06/28 10:23:37;;;;;;;0.60;0.40;;;27.10;55.10;;;27.85;34.89;101513.00;5214253;28;20049;-79
2022/06/28 10:26:19;;;;;;;0.93;0.47;;;27.00;55.50;;;27.93;34.91;101506.56;5221293;28;20133;-77
2022/06/28 10:29:04;;;;;;;2.80;0.70;;;27.10;55.70;;;27.69;35.18;101510.72;5212676;28;20036;-77
2022/06/28 10:31:42;;;;;;;1.48;0.47;;;26.90;55.40;;;27.59;35.18;101505.59;5210493;28;20056;-79
2022/06/28 10:34:16;;;;;;;1.98;0.60;;;26.90;55.40;;;27.52;34.91;101492.38;5216598;28;20407;-79
2022/06/28 10:36:54;;;;;;;1.02;0.73;;;26.80;55.40;;;27.62;35.16;101504.63;5222739;28;20074;-79
2022/06/28 10:39:29;;;;;;;2.40;0.70;;;26.80;55.60;;;27.80;35.39;101492.59;5231401;28;20075;-78
2022/06/28 10:42:13;;;;;;;2.25;0.60;;;26.80;56.20;;;27.90;34.30;101487.88;5254933;22;20041;-78
2022/06/28 10:44:48;;;;;;;2.42;0.95;;;26.90;55.00;;;28.01;35.03;101489.34;5244317;28;20494;-78
2022/06/28 10:47:20;;;;;;;1.67;0.60;;;27.00;55.80;;;28.00;34.11;101489.41;5254391;28;20052;-78
2022/06/28 10:49:59;;;;;;;0.90;0.63;;;27.10;54.70;;;27.95;34.12;101491.31;5247299;28;20044;-79
2022/06/28 10:52:33;;;;;;;4.75;1.00;;;27.10;54.60;;;28.06;34.67;101489.22;5232800;28;20044;-79
2022/06/28 10:55:30;;;;;;;2.65;0.88;;;27.10;55.90;;;28.25;34.78;101482.44;5263766;28;20040;-79
2022/06/28 10:58:09;;;;;;;3.38;0.80;;;27.30;55.40;;;28.41;34.14;101485.59;5224732;28;20053;-78